Kenton, DE (19955)

12:17 EDT le 05 septembre 2015 (GMT -0400)
DEOS | | Change Station
CLOSE
Current Station
Stations météorologiques personnelles
Location: Kenton, DE
Altitude: 56 ft
Stations météo à proximité

Alt. 56 ft 39.24 °N, 75.74 °W | Updated 22 minutes ago

Ciel dégagé
Ciel dégagé
81 ° F
Paraît 82 ° F
N
4
Vent Variable Vent de ENE
Gusts 6.0 mph

Aujourd'hui
Haut(e) -- | Bas -- ° F
--% Risque de précip.
Hier
Haut(e) -- | Bas -- ° F
Precip. -- pouce
6:34 AM 7:27 PM
Lune gibbeuse décroissante, 47% visible
Pression 30.23 pouce
Visibilité 10.0 Miles terrestres
Nuages Peu 2800 ft
indice de chaleur 82 ° F
Point de rosée 64 ° F
Humidité 55%
Précipitations pouce
Profondeur de la couche neigeuse Non disponible.
UV 8 sur 12
Pollen 9.70 sur 12
Qualité de l'air Non disponible.
Flu Activity Non disponible.
METAR KDOV 051558Z AUTO 04005KT 10SM FEW028 26/19 A3022 RMK AO2 SLP237 T02620187 VISNO RWY19 CHINO RWY19 $
Pression 30.23 pouce
Visibilité 10.0 Miles terrestres
Nuages Peu 2800 ft
indice de chaleur 82 ° F
Point de rosée 64 ° F
Humidité 55%
Précipitations pouce
Profondeur de la couche neigeuse Non disponible.
UV 8 sur 12
Pollen 9.70 sur 12
Qualité de l'air Non disponible.
Flu Activity Non disponible.
METAR KDOV 051558Z AUTO 04005KT 10SM FEW028 26/19 A3022 RMK AO2 SLP237 T02620187 VISNO RWY19 CHINO RWY19 $

10-Day Weather Forecast

×

Almanac

Astronomie

Sep. 05, 2015 Lever Coucher
Temps réel
Crépuscule civil
Crépuscule nautique
Crépuscule astronomique
Lune
Durée de lumière visible
Longueur du jour
Tomorrow will be .
, % of the Moon is Illuminated

Extrêmes aujourd'hui

State Highs State Lows

Community

WunderPhotos

Upload Photos

1,852,495 Photos téléchargées !

WunderBlogs® & News

Nearby

Qualité de l'air

  Qualité de l'air Indice de la qualité de l'air Polluant
Not available.

Épaisseur de neige

Station Depth Altitude

Activité sismique

Ville Distance Mag. Time & Date
Minimum magnitude displayed is 2.5.

Températures des eaux côtières

Lieu Température

Stations

Stations météo à proximité

Emplacement de la station Température Refroidissement éolien Point de rosée Humidité Vent Precip. Alt. Mise à jour Type